Sunday, July 22, 2018, 12:54 AM EDT
Back to Local

KEWR, Newark International Airport

Location: Elizabeth, NJ, United States Lat: 40.683
Local Time: 12:54 AM EDT ( 4:54 GMT) Lon: -74.167
Time Zone: US/Eastern Elev: 16 ft

Show me the last for .
Show Decoded

2018-07-21 23:51 METAR KEWR 220351Z 07012G19KT 6SM -RA BR OVC008 21/20 A2987 RMK AO2 SLP115 P0014
                 T02110200 =
2018-07-21 23:29 METAR KEWR 220329Z 07013G20KT 6SM -RA BR OVC008 21/19 A2988 RMK AO2 P0009
                 T02060194 =
2018-07-21 23:11 METAR KEWR 220311Z 06011G23KT 3SM RA BR BKN010 OVC015 20/19 A2988 RMK AO2 P0005
                 T02000194 =
2018-07-21 22:51 METAR KEWR 220251Z 05013KT 8SM -RA BKN010 OVC015 19/19 A2989 RMK AO2 SLP121
                 P0030 60062 T01940189 58023 =
2018-07-21 22:40 METAR KEWR 220240Z 05012KT 5SM -RA BR OVC010 19/19 A2990 RMK AO2 P0029 T01940189
                 =
2018-07-21 22:19 METAR KEWR 220219Z 07006G18KT 2SM +RA BR OVC010 19/18 A2991 RMK AO2 P0012
                 T01940183 =
2018-07-21 22:03 METAR KEWR 220203Z 07008KT 3SM RA BR OVC012 19/18 A2992 RMK AO2 P0004 T01890178
                 =
2018-07-21 21:51 METAR KEWR 220151Z 06010G17KT 3SM RA BR OVC015 19/18 A2993 RMK AO2 SLP134 P0024
                 T01890178 =
2018-07-21 21:37 METAR KEWR 220137Z 06009KT 4SM -RA BR OVC016 19/18 A2994 RMK AO2 P0019 T01890178
                 =
2018-07-21 20:59 METAR KEWR 220059Z 04012KT 2SM R04R/6000VP6000FT +RA BR SCT017 OVC022 19/17
                 A2994 RMK AO2 P0004 T01890172 =
2018-07-21 20:51 METAR KEWR 220051Z 05010KT 4SM RA BR OVC022 19/17 A2995 RMK AO2 SLP140 P0008
                 T01890167 =
2018-07-21 20:25 METAR KEWR 220025Z 05008G18KT 7SM -RA BKN025 OVC045 20/17 A2995 RMK AO2 P0002
                 T02000172 =
2018-07-21 19:51 METAR KEWR 212351Z 05011KT 5SM -RA SCT021 BKN034 OVC050 21/17 A2996 RMK AO2
                 SLP144 P0002 60002 T02060167 10250 20206 56014 =
2018-07-21 18:51 METAR KEWR 212251Z 05011KT 10SM -RA BKN045 OVC060 23/15 A2997 RMK AO2 RAB51
                 SLP149 P0000 T02280150 =
2018-07-21 17:51 METAR KEWR 212151Z 08012G17KT 10SM BKN048 OVC060 24/13 A2998 RMK AO2 RAB34E46
                 SLP152 P0000 T02390128 =
2018-07-21 16:51 METAR KEWR 212051Z 08010G16KT 10SM BKN075 BKN160 OVC250 24/13 A3000 RMK AO2
                 SLP158 T02390133 56015 =
2018-07-21 15:51 METAR KEWR 211951Z 11011G19KT 10SM FEW030 SCT075 BKN100 BKN180 OVC250 24/15
                 A3001 RMK AO2 SLP160 T02390150 =
2018-07-21 14:51 METAR KEWR 211851Z 11011G19KT 10SM SCT027 BKN120 BKN180 OVC250 25/14 A3003 RMK
                 AO2 SLP167 T02500144 =
2018-07-21 13:51 METAR KEWR 211751Z 13011G21KT 10SM SCT027 SCT120 BKN150 BKN250 24/14 A3004 RMK
                 AO2 SLP173 T02440139 10250 20222 58014 =
2018-07-21 12:51 METAR KEWR 211651Z 12011G19KT 10SM FEW035 SCT120 BKN150 BKN250 24/14 A3006 RMK
                 AO2 SLP179 T02440144 =
2018-07-21 11:51 METAR KEWR 211551Z 10010KT 10SM FEW035 FEW100 BKN140 BKN250 24/13 A3008 RMK AO2
                 SLP184 T02390133 =
2018-07-21 10:51 METAR KEWR 211451Z 10011G20KT 10SM FEW034 FEW100 BKN150 BKN250 24/14 A3009 RMK
                 AO2 SLP187 T02390139 51005 =
2018-07-21 09:51 METAR KEWR 211351Z 11010KT 10SM FEW034 BKN150 BKN250 23/13 A3008 RMK AO2 SLP186
                 T02330128 =
2018-07-21 08:51 METAR KEWR 211251Z 10011G16KT 10SM FEW032 BKN150 BKN250 23/14 A3008 RMK AO2
                 SLP185 T02280144 =
2018-07-21 07:51 METAR KEWR 211151Z 10010KT 10SM FEW033 BKN150 BKN250 23/14 A3007 RMK AO2 SLP182
                 T02280144 10228 20217 58005 =
2018-07-21 06:51 METAR KEWR 211051Z 10007KT 10SM FEW035 BKN150 BKN250 22/14 A3007 RMK AO2 SLP183
                 T02220144 =
2018-07-21 05:51 METAR KEWR 210951Z 12004KT 10SM SCT033 BKN150 BKN250 22/15 A3008 RMK AO2 SLP186
                 T02170150 =
2018-07-21 04:51 METAR KEWR 210851Z 12003KT 10SM SCT033 SCT150 BKN250 22/15 A3008 RMK AO2 SLP187
                 T02170150 58003 =
2018-07-21 03:51 METAR KEWR 210751Z 14006KT 10SM SCT033 BKN150 BKN250 22/16 A3009 RMK AO2 SLP188
                 T02170156 =
2018-07-21 02:51 METAR KEWR 210651Z 14004KT 10SM SCT033 BKN150 BKN250 22/15 A3009 RMK AO2 SLP189
                 T02170150 =
2018-07-21 01:51 METAR KEWR 210551Z 15007KT 10SM SCT033 BKN150 BKN250 22/15 A3009 RMK AO2 SLP190
                 T02220150 10233 20217 58010 =

Support USWX by starting your Amazon purchase here.